createdAt,value
2022-11-26T00:00:53.201Z,14.16
2022-11-26T00:03:20.598Z,14.18
2022-11-26T00:05:49.454Z,14.18
2022-11-26T00:08:29.281Z,14.20
2022-11-26T00:10:56.143Z,14.20
2022-11-26T00:13:25.753Z,14.17
2022-11-26T00:15:52.524Z,14.17
2022-11-26T00:18:19.382Z,14.14
2022-11-26T00:20:46.681Z,14.11
2022-11-26T00:23:21.972Z,14.10
2022-11-26T00:25:59.258Z,14.14
2022-11-26T00:28:36.993Z,14.16
2022-11-26T00:31:06.363Z,14.16
2022-11-26T00:33:33.377Z,14.15
2022-11-26T00:36:10.183Z,14.14
2022-11-26T00:38:36.718Z,14.13
2022-11-26T00:41:03.336Z,14.12
2022-11-26T00:43:29.882Z,14.09
2022-11-26T00:45:56.520Z,14.08
2022-11-26T00:48:23.102Z,14.07
2022-11-26T00:50:51.502Z,14.06
2022-11-26T00:53:20.572Z,14.07
2022-11-26T00:55:49.574Z,14.10
2022-11-26T00:58:28.645Z,14.10
2022-11-26T01:00:56.968Z,14.12
2022-11-26T01:03:24.267Z,14.13
2022-11-26T01:05:52.979Z,14.19
2022-11-26T01:08:35.559Z,14.20
2022-11-26T01:11:04.696Z,14.19
2022-11-26T01:13:32.305Z,14.23
2022-11-26T01:16:00.288Z,14.20
2022-11-26T01:18:27.241Z,14.18
2022-11-26T01:20:53.806Z,14.13
2022-11-26T01:23:20.804Z,14.07
2022-11-26T01:25:47.478Z,14.07
2022-11-26T01:28:16.862Z,14.09
2022-11-26T01:30:43.992Z,14.07
2022-11-26T01:33:10.619Z,14.09
2022-11-26T01:35:37.342Z,14.09
2022-11-26T01:38:05.121Z,14.10
2022-11-26T01:40:55.194Z,14.19
2022-11-26T01:43:28.257Z,14.26
2022-11-26T01:45:56.166Z,14.27
2022-11-26T01:48:43.527Z,14.30
2022-11-26T01:51:11.365Z,14.32
2022-11-26T01:53:45.059Z,14.29
2022-11-26T01:56:16.641Z,14.23
2022-11-26T01:58:46.911Z,14.20
2022-11-26T02:01:14.038Z,14.19
2022-11-26T02:03:50.497Z,14.15
2022-11-26T02:06:19.868Z,14.12
2022-11-26T02:08:46.650Z,14.15
2022-11-26T02:11:23.111Z,14.18
2022-11-26T02:13:52.088Z,14.21
2022-11-26T02:16:30.286Z,14.23
2022-11-26T02:19:34.288Z,14.22
2022-11-26T02:22:36.314Z,14.19
2022-11-26T02:25:10.136Z,14.19
2022-11-26T02:28:13.191Z,14.26
2022-11-26T02:30:43.942Z,14.24
2022-11-26T02:33:17.080Z,14.24
2022-11-26T02:35:53.461Z,14.26
2022-11-26T02:38:23.395Z,14.27
2022-11-26T02:40:51.104Z,14.26
2022-11-26T02:43:18.106Z,14.26
2022-11-26T02:45:48.879Z,14.28
2022-11-26T02:48:20.419Z,14.33
2022-11-26T02:50:49.787Z,14.34
2022-11-26T02:53:17.923Z,14.36
2022-11-26T02:55:55.033Z,14.38
2022-11-26T02:58:21.536Z,14.40
2022-11-26T03:00:49.717Z,14.48
2022-11-26T03:03:24.039Z,14.57
2022-11-26T03:05:53.415Z,14.59
2022-11-26T03:08:20.158Z,14.59
2022-11-26T03:10:46.908Z,14.57
2022-11-26T03:13:13.388Z,14.56
2022-11-26T03:15:39.918Z,14.51
2022-11-26T03:18:06.489Z,14.46
2022-11-26T03:20:32.966Z,14.35
2022-11-26T03:22:59.433Z,14.27
2022-11-26T03:25:25.966Z,14.19
2022-11-26T03:27:52.464Z,14.11
2022-11-26T03:30:19.047Z,14.05
2022-11-26T03:32:45.564Z,13.98
2022-11-26T03:35:12.219Z,13.95
2022-11-26T03:37:38.767Z,13.94
2022-11-26T03:40:06.680Z,13.89
2022-11-26T03:42:33.170Z,13.83
2022-11-26T03:44:59.671Z,13.90
2022-11-26T03:47:27.332Z,14.00
2022-11-26T03:49:53.891Z,14.05
2022-11-26T03:52:20.747Z,14.01
2022-11-26T03:54:47.267Z,14.00
2022-11-26T03:57:13.839Z,14.01
2022-11-26T03:59:40.498Z,14.07
2022-11-26T04:02:07.019Z,14.15
2022-11-26T04:04:34.013Z,14.28
2022-11-26T04:07:00.707Z,14.42
2022-11-26T04:09:27.251Z,14.53
2022-11-26T04:11:53.695Z,14.50
2022-11-26T04:14:20.323Z,14.38
2022-11-26T04:16:47.022Z,14.27
2022-11-26T04:19:13.855Z,14.19
2022-11-26T04:21:40.430Z,14.20
2022-11-26T04:24:07.486Z,14.23
2022-11-26T04:26:34.052Z,14.28
2022-11-26T04:29:00.529Z,14.27
2022-11-26T04:31:27.032Z,14.19
2022-11-26T04:33:53.524Z,14.12
2022-11-26T04:36:20.066Z,14.04
2022-11-26T04:38:46.611Z,13.95
2022-11-26T04:41:13.114Z,13.87
2022-11-26T04:43:39.676Z,13.81
2022-11-26T04:46:06.600Z,13.77
2022-11-26T04:48:33.169Z,13.76
2022-11-26T04:50:59.802Z,13.79
2022-11-26T04:53:26.341Z,13.85
2022-11-26T04:55:53.074Z,13.87
2022-11-26T04:58:20.586Z,13.88
2022-11-26T05:00:51.096Z,13.87
2022-11-26T05:03:18.148Z,13.86
2022-11-26T05:05:44.642Z,13.87
2022-11-26T05:08:11.159Z,13.88
2022-11-26T05:10:37.642Z,13.87
2022-11-26T05:13:04.170Z,13.88
2022-11-26T05:15:30.792Z,13.96
2022-11-26T05:17:57.486Z,14.05
2022-11-26T05:20:24.188Z,14.19
2022-11-26T05:22:50.740Z,14.31
2022-11-26T05:25:17.461Z,14.38
2022-11-26T05:27:43.967Z,14.51
2022-11-26T05:30:11.118Z,14.63
2022-11-26T05:32:37.870Z,14.68
2022-11-26T05:35:04.815Z,14.59
2022-11-26T05:37:31.357Z,14.58
2022-11-26T05:39:57.852Z,14.63
2022-11-26T05:42:24.397Z,14.61
2022-11-26T05:44:50.943Z,14.56
2022-11-26T05:47:17.783Z,14.67
2022-11-26T05:49:44.421Z,14.84
2022-11-26T05:52:10.943Z,14.93
2022-11-26T05:54:37.700Z,15.00
2022-11-26T05:57:04.531Z,15.10
2022-11-26T05:59:31.073Z,15.16
2022-11-26T06:01:57.797Z,15.20
2022-11-26T06:04:24.466Z,15.27
2022-11-26T06:06:51.031Z,15.26
2022-11-26T06:09:17.571Z,15.32
2022-11-26T06:11:44.055Z,15.41
2022-11-26T06:14:10.763Z,15.45
2022-11-26T06:16:37.526Z,15.47
2022-11-26T06:19:04.323Z,15.49
2022-11-26T06:21:31.034Z,15.49
2022-11-26T06:23:59.522Z,15.38
2022-11-26T06:26:26.401Z,15.31
2022-11-26T06:28:52.952Z,15.19
2022-11-26T06:31:19.534Z,15.09
2022-11-26T06:33:46.106Z,14.99
2022-11-26T06:36:12.811Z,14.93
2022-11-26T06:38:39.461Z,14.87
2022-11-26T06:41:08.026Z,14.81
2022-11-26T06:43:34.869Z,14.76
2022-11-26T06:46:03.559Z,14.73
2022-11-26T06:48:30.361Z,14.72
2022-11-26T06:50:56.989Z,14.75
2022-11-26T06:53:23.593Z,14.76
2022-11-26T06:55:50.336Z,14.76
2022-11-26T06:58:17.026Z,14.80
2022-11-26T07:00:43.540Z,14.87
2022-11-26T07:03:10.551Z,14.88
2022-11-26T07:05:37.874Z,14.92
2022-11-26T07:08:04.809Z,14.94
2022-11-26T07:10:31.308Z,14.95
2022-11-26T07:12:58.355Z,14.91
2022-11-26T07:15:25.332Z,14.95
2022-11-26T07:17:52.135Z,15.03
2022-11-26T07:20:19.004Z,15.06
2022-11-26T07:22:45.646Z,15.12
2022-11-26T07:25:12.902Z,15.19
2022-11-26T07:27:39.663Z,15.28
2022-11-26T07:30:06.852Z,15.35
2022-11-26T07:32:33.662Z,15.39
2022-11-26T07:35:01.799Z,15.47
2022-11-26T07:37:28.502Z,15.60
2022-11-26T07:39:55.102Z,15.70
2022-11-26T07:42:21.670Z,15.72
2022-11-26T07:44:48.159Z,15.73
2022-11-26T07:47:14.723Z,15.78
2022-11-26T07:49:41.193Z,15.82
2022-11-26T07:52:07.848Z,15.81
2022-11-26T07:54:34.405Z,15.81
2022-11-26T07:57:01.012Z,15.83
2022-11-26T07:59:27.796Z,15.86
2022-11-26T08:01:54.344Z,15.84
2022-11-26T08:04:20.963Z,15.88
2022-11-26T08:06:47.565Z,15.83
2022-11-26T08:09:14.178Z,15.73
2022-11-26T08:11:40.764Z,15.73
2022-11-26T08:14:10.596Z,15.70
2022-11-26T08:16:37.234Z,15.61
2022-11-26T08:19:10.982Z,15.57
2022-11-26T08:21:38.365Z,15.55
2022-11-26T08:24:05.730Z,15.55
2022-11-26T08:26:36.131Z,15.60
2022-11-26T08:29:03.996Z,15.68
2022-11-26T08:31:30.590Z,15.72
2022-11-26T08:33:59.491Z,15.78
2022-11-26T08:36:27.364Z,15.98
2022-11-26T08:38:53.978Z,16.11
2022-11-26T08:41:20.523Z,16.19
2022-11-26T08:46:33.638Z,16.27
2022-11-26T08:49:00.493Z,16.38
2022-11-26T08:51:27.002Z,16.52
2022-11-26T08:53:53.581Z,16.55
2022-11-26T08:56:20.138Z,16.58
2022-11-26T08:58:48.797Z,16.64
2022-11-26T09:01:27.392Z,16.69
2022-11-26T09:03:56.745Z,16.64
2022-11-26T09:06:25.242Z,16.64
2022-11-26T09:09:10.618Z,16.61
2022-11-26T09:11:48.619Z,16.58
2022-11-26T09:14:17.091Z,16.54
2022-11-26T09:16:44.039Z,16.63
2022-11-26T09:19:12.436Z,16.69
2022-11-26T09:21:39.100Z,16.71
2022-11-26T09:24:05.938Z,16.81
2022-11-26T09:26:33.260Z,16.92
2022-11-26T09:29:00.358Z,16.99
2022-11-26T09:31:28.240Z,17.04
2022-11-26T09:33:56.828Z,17.11
2022-11-26T09:36:23.475Z,17.19
2022-11-26T09:38:53.862Z,17.22
2022-11-26T09:41:42.763Z,17.24
2022-11-26T09:44:34.152Z,17.28
2022-11-26T09:47:12.870Z,17.32
2022-11-26T09:50:13.594Z,17.35
2022-11-26T09:52:43.074Z,17.36
2022-11-26T09:55:19.941Z,17.37
2022-11-26T09:57:52.336Z,17.39
2022-11-26T10:00:25.874Z,17.42
2022-11-26T10:02:53.955Z,17.48
2022-11-26T10:05:23.332Z,17.52
2022-11-26T10:08:13.003Z,17.56
2022-11-26T10:10:58.797Z,17.57
2022-11-26T10:13:50.884Z,17.61
2022-11-26T10:16:39.022Z,17.64
2022-11-26T10:19:20.708Z,17.64
2022-11-26T10:21:59.763Z,17.68
2022-11-26T10:24:30.265Z,17.72
2022-11-26T10:27:00.192Z,17.71
2022-11-26T10:29:42.500Z,17.71
2022-11-26T10:32:26.302Z,17.69
2022-11-26T10:34:54.809Z,17.69
2022-11-26T10:37:23.358Z,17.68
2022-11-26T10:40:00.091Z,17.70
2022-11-26T10:42:40.291Z,17.74
2022-11-26T10:45:19.026Z,17.77
2022-11-26T10:47:45.529Z,17.78
2022-11-26T10:50:45.900Z,17.80
2022-11-26T10:53:22.334Z,17.82
2022-11-26T10:55:49.084Z,17.83
2022-11-26T10:58:19.662Z,17.87
2022-11-26T11:00:55.852Z,17.89
2022-11-26T11:06:20.387Z,17.93
2022-11-26T11:08:48.887Z,17.93
2022-11-26T11:11:26.681Z,17.93
2022-11-26T11:13:53.518Z,17.94
2022-11-26T11:16:29.242Z,17.96
2022-11-26T11:18:58.937Z,17.98
2022-11-26T11:21:30.669Z,17.99
2022-11-26T11:24:09.031Z,17.98
2022-11-26T11:26:42.623Z,17.96
2022-11-26T11:29:34.460Z,17.99
2022-11-26T11:32:04.382Z,17.98
2022-11-26T11:34:35.266Z,17.97
2022-11-26T11:37:14.770Z,17.97
2022-11-26T11:39:42.105Z,17.97
2022-11-26T11:42:21.928Z,18.01
2022-11-26T11:44:49.638Z,18.02
2022-11-26T11:47:41.239Z,18.02
2022-11-26T11:50:21.519Z,17.97
2022-11-26T11:53:00.311Z,17.97
2022-11-26T11:55:45.786Z,17.94
2022-11-26T11:58:31.944Z,17.91
2022-11-26T12:01:10.605Z,17.88
2022-11-26T12:03:56.346Z,17.87
2022-11-26T12:06:40.043Z,17.90
2022-11-26T12:09:38.771Z,17.91
2022-11-26T12:12:11.042Z,17.92
2022-11-26T12:14:45.099Z,17.90
2022-11-26T12:17:31.744Z,17.92
2022-11-26T12:20:05.174Z,17.93
2022-11-26T12:23:00.213Z,17.95
2022-11-26T12:25:36.744Z,17.96
2022-11-26T13:18:18.809Z,17.52
2022-11-26T13:20:52.115Z,17.54
2022-11-26T13:23:30.135Z,17.56
2022-11-26T13:26:28.611Z,17.55
2022-11-26T13:29:34.223Z,17.52
2022-11-26T13:32:25.310Z,17.47
2022-11-26T13:35:04.073Z,17.45
2022-11-26T13:37:36.607Z,17.55
2022-11-26T13:40:27.705Z,17.65
2022-11-26T13:43:19.050Z,17.74
2022-11-26T13:46:22.610Z,17.78
2022-11-26T13:48:49.210Z,17.78
2022-11-26T13:52:04.739Z,17.79
2022-11-26T13:54:51.502Z,17.79
2022-11-26T13:57:24.537Z,17.79
2022-11-26T13:59:53.459Z,17.79
2022-11-26T14:02:36.712Z,17.77
2022-11-26T14:05:23.643Z,17.75
2022-11-26T14:07:50.359Z,17.72
2022-11-26T14:10:35.860Z,17.72
2022-11-26T14:13:07.612Z,17.69
2022-11-26T14:15:42.801Z,17.64
2022-11-26T14:18:14.641Z,17.61
2022-11-26T14:21:02.479Z,17.59
2022-11-26T14:23:41.367Z,17.58
2022-11-26T14:26:12.037Z,17.55
2022-11-26T14:28:38.622Z,17.55
2022-11-26T14:31:24.971Z,17.58
2022-11-26T14:33:55.117Z,17.57
2022-11-26T14:36:24.370Z,17.54
2022-11-26T14:39:09.553Z,17.51
2022-11-26T14:41:42.059Z,17.50
2022-11-26T14:44:16.239Z,17.46
2022-11-26T14:46:45.638Z,17.41
2022-11-26T14:49:21.134Z,17.37
2022-11-26T14:51:49.202Z,17.32
2022-11-26T14:54:20.284Z,17.28
2022-11-26T14:56:47.054Z,17.23
2022-11-26T14:59:15.705Z,17.18
2022-11-26T15:01:45.305Z,17.13
2022-11-26T15:04:25.967Z,17.07
2022-11-26T15:06:52.524Z,17.00
2022-11-26T15:09:24.462Z,16.93
2022-11-26T15:12:00.102Z,16.83
2022-11-26T15:14:29.831Z,16.78
2022-11-26T15:16:59.607Z,16.76
2022-11-26T15:19:27.016Z,16.74
2022-11-26T15:21:53.915Z,16.69
2022-11-26T15:24:20.479Z,16.64
2022-11-26T15:26:48.070Z,16.58
2022-11-26T15:29:36.747Z,16.54
2022-11-26T15:32:04.228Z,16.51
2022-11-26T15:34:32.387Z,16.50
2022-11-26T15:36:59.080Z,16.48
2022-11-26T15:39:30.845Z,16.42
2022-11-26T15:42:05.738Z,16.36
2022-11-26T15:44:37.659Z,16.34
2022-11-26T15:47:07.493Z,16.32
2022-11-26T15:49:37.516Z,16.30
2022-11-26T15:52:14.057Z,16.26
2022-11-26T15:55:10.953Z,16.24
2022-11-26T15:57:32.929Z,16.19
2022-11-26T16:00:05.830Z,16.18
2022-11-26T16:02:33.046Z,16.18
2022-11-26T16:05:01.174Z,16.15
2022-11-26T16:07:29.828Z,16.11
2022-11-26T16:10:35.464Z,16.07
2022-11-26T16:13:15.810Z,16.01
2022-11-26T16:16:07.046Z,15.96
2022-11-26T16:18:38.131Z,15.91
2022-11-26T16:21:15.830Z,15.87
2022-11-26T16:23:42.585Z,15.82
2022-11-26T16:26:10.462Z,15.79
2022-11-26T16:28:37.029Z,15.77
2022-11-26T16:31:03.656Z,15.74
2022-11-26T16:33:30.687Z,15.74
2022-11-26T16:35:57.327Z,15.72
2022-11-26T16:38:26.125Z,15.71
2022-11-26T16:40:53.441Z,15.69
2022-11-26T16:43:20.350Z,15.68
2022-11-26T16:45:48.411Z,15.66
2022-11-26T16:48:26.158Z,15.61
2022-11-26T16:50:54.887Z,15.58
2022-11-26T16:53:21.890Z,15.54
2022-11-26T16:55:50.003Z,15.51
2022-11-26T16:58:31.266Z,15.48
2022-11-26T17:00:58.365Z,15.45
2022-11-26T17:03:25.740Z,15.43
2022-11-26T17:05:54.567Z,15.42
2022-11-26T17:08:21.220Z,15.38
2022-11-26T17:10:47.930Z,15.33
2022-11-26T17:13:15.384Z,15.31
2022-11-26T17:15:42.507Z,15.27
2022-11-26T17:18:23.505Z,15.22
2022-11-26T17:20:51.008Z,15.20
2022-11-26T17:23:17.724Z,15.18
2022-11-26T17:25:45.723Z,15.17
2022-11-26T17:28:13.618Z,15.14
2022-11-26T17:30:41.161Z,15.11
2022-11-26T17:33:08.705Z,15.07
2022-11-26T17:35:35.959Z,15.01
2022-11-26T17:38:02.873Z,14.97
2022-11-26T17:40:30.042Z,14.93
2022-11-26T17:42:56.618Z,14.92
2022-11-26T17:45:23.267Z,14.92
2022-11-26T17:47:50.295Z,14.92
2022-11-26T17:50:22.851Z,14.90
2022-11-26T17:52:50.003Z,14.88
2022-11-26T17:55:18.094Z,14.87
2022-11-26T17:57:45.076Z,14.84
2022-11-26T18:00:15.261Z,14.80
2022-11-26T18:02:43.622Z,14.75
2022-11-26T18:05:11.225Z,14.70
2022-11-26T18:07:38.707Z,14.66
2022-11-26T18:10:07.065Z,14.62
2022-11-26T18:12:33.891Z,14.61
2022-11-26T18:15:02.130Z,14.61
2022-11-26T18:17:28.889Z,14.59
2022-11-26T18:19:56.895Z,14.57
2022-11-26T18:22:25.214Z,14.55
2022-11-26T18:24:57.376Z,14.54
2022-11-26T18:27:27.972Z,14.52
2022-11-26T18:29:54.577Z,14.52
2022-11-26T18:32:21.329Z,14.51
2022-11-26T18:34:51.087Z,14.52
2022-11-26T18:37:18.221Z,14.49
2022-11-26T18:39:44.831Z,14.48
2022-11-26T18:42:36.019Z,14.48
2022-11-26T18:45:00.115Z,14.46
2022-11-26T18:47:26.681Z,14.45
2022-11-26T18:49:55.439Z,14.45
2022-11-26T18:52:21.962Z,14.47
2022-11-26T18:54:48.621Z,14.46
2022-11-26T18:57:15.147Z,14.46
2022-11-26T18:59:42.423Z,14.44
2022-11-26T19:02:10.494Z,14.41
2022-11-26T19:04:38.301Z,14.40
2022-11-26T19:07:04.877Z,14.39
2022-11-26T19:09:31.527Z,14.37
2022-11-26T19:11:58.367Z,14.33
2022-11-26T19:14:25.221Z,14.29
2022-11-26T19:16:52.021Z,14.30
2022-11-26T19:19:19.303Z,14.30
2022-11-26T19:21:46.182Z,14.28
2022-11-26T19:24:13.576Z,14.28
2022-11-26T19:26:42.945Z,14.26
2022-11-26T19:29:11.376Z,14.24
2022-11-26T19:31:39.740Z,14.21
2022-11-26T19:34:10.081Z,14.20
2022-11-26T19:36:37.633Z,14.19
2022-11-26T19:39:05.332Z,14.19
2022-11-26T19:41:32.958Z,14.17
2022-11-26T19:44:00.659Z,14.14
2022-11-26T19:46:28.893Z,14.13
2022-11-26T19:48:56.137Z,14.12
2022-11-26T19:51:24.448Z,14.11
2022-11-26T19:53:53.198Z,14.11
2022-11-26T19:56:22.526Z,14.10
2022-11-26T19:58:49.632Z,14.07
2022-11-26T20:01:17.423Z,14.04
2022-11-26T20:03:44.258Z,14.00
2022-11-26T20:06:37.366Z,13.98
2022-11-26T20:09:05.590Z,13.95
2022-11-26T20:11:33.016Z,13.90
2022-11-26T20:13:59.599Z,13.86
2022-11-26T20:16:28.388Z,13.82
2022-11-26T20:18:55.902Z,13.78
2022-11-26T20:21:26.095Z,13.74
2022-11-26T20:23:53.705Z,13.69
2022-11-26T20:26:28.146Z,13.67
2022-11-26T20:28:55.782Z,13.63
2022-11-26T20:31:24.148Z,13.58
2022-11-26T20:33:52.871Z,13.52
2022-11-26T20:36:21.183Z,13.46
2022-11-26T20:38:51.142Z,13.40
2022-11-26T20:41:17.743Z,13.34
2022-11-26T20:43:44.933Z,13.30
2022-11-26T20:46:13.632Z,13.27
2022-11-26T20:48:41.801Z,13.21
2022-11-26T20:51:10.333Z,13.18
2022-11-26T20:53:37.863Z,13.16
2022-11-26T20:56:05.433Z,13.13
2022-11-26T20:58:33.454Z,13.09
2022-11-26T21:01:01.471Z,13.06
2022-11-26T21:03:29.065Z,13.02
2022-11-26T21:05:55.794Z,12.95
2022-11-26T21:08:23.232Z,12.91
2022-11-26T21:10:50.167Z,12.86
2022-11-26T21:13:18.672Z,12.78
2022-11-26T21:15:49.349Z,12.67
2022-11-26T21:18:16.071Z,12.54
2022-11-26T21:20:43.729Z,12.48
2022-11-26T21:23:11.800Z,12.41
2022-11-26T21:25:40.368Z,12.34
2022-11-26T21:28:07.527Z,12.31
2022-11-26T21:30:35.250Z,12.29
2022-11-26T21:33:08.798Z,12.29
2022-11-26T21:35:36.206Z,12.27
2022-11-26T21:38:02.976Z,12.24
2022-11-26T21:40:29.671Z,12.25
2022-11-26T21:42:56.232Z,12.26
2022-11-26T21:45:23.110Z,12.24
2022-11-26T21:47:52.826Z,12.23
2022-11-26T21:50:19.782Z,12.22
2022-11-26T21:52:46.633Z,12.22
2022-11-26T21:55:13.192Z,12.19
2022-11-26T21:57:39.738Z,12.14
2022-11-26T22:00:07.007Z,12.06
2022-11-26T22:02:33.649Z,11.98
2022-11-26T22:05:00.259Z,11.94
2022-11-26T22:07:27.067Z,11.91
2022-11-26T22:09:54.004Z,11.86
2022-11-26T22:12:20.561Z,11.80
2022-11-26T22:14:47.130Z,11.73
2022-11-26T22:17:13.729Z,11.64
2022-11-26T22:19:40.488Z,11.57
2022-11-26T22:22:07.301Z,11.57
2022-11-26T22:24:34.024Z,11.63
2022-11-26T22:27:00.638Z,11.61
2022-11-26T22:29:27.220Z,11.65
2022-11-26T22:31:53.748Z,11.68
2022-11-26T22:34:24.675Z,11.70
2022-11-26T22:36:51.492Z,11.72
2022-11-26T22:39:18.597Z,11.71
2022-11-26T22:41:46.307Z,11.69
2022-11-26T22:44:13.565Z,11.65
2022-11-26T22:46:40.265Z,11.63
2022-11-26T22:49:07.330Z,11.60
2022-11-26T22:51:34.957Z,11.52
2022-11-26T22:54:04.290Z,11.45
2022-11-26T22:56:31.313Z,11.39
2022-11-26T22:58:58.337Z,11.40
2022-11-26T23:01:29.300Z,11.37
2022-11-26T23:03:57.288Z,11.35
2022-11-26T23:06:25.289Z,11.33
2022-11-26T23:08:52.031Z,11.30
2022-11-26T23:11:21.515Z,11.30
2022-11-26T23:13:49.729Z,11.28
2022-11-26T23:16:17.911Z,11.27
2022-11-26T23:18:44.711Z,11.25
2022-11-26T23:21:17.523Z,11.23
2022-11-26T23:23:44.216Z,11.21
2022-11-26T23:26:13.739Z,11.22
2022-11-26T23:28:40.456Z,11.23
2022-11-26T23:31:10.977Z,11.23
2022-11-26T23:33:37.511Z,11.22
2022-11-26T23:36:04.425Z,11.18
2022-11-26T23:38:30.984Z,11.15
2022-11-26T23:41:02.509Z,11.10
2022-11-26T23:43:30.486Z,11.09
2022-11-26T23:46:10.289Z,11.10
2022-11-26T23:48:37.319Z,11.08
2022-11-26T23:51:08.637Z,11.05
2022-11-26T23:53:37.000Z,11.04
2022-11-26T23:56:04.969Z,11.00
2022-11-26T23:58:31.551Z,10.99
